Time;durP1;ratioP1;P1;durP2;ratioP2;P2;SDS_P1;SDS_P2;PMS_P1;PMS_P2;Temp;Humidity;BMP_temperature;BMP_pressure;BME280_temperature;BME280_humidity;BME280_pressure;Samples;Min_cycle;Max_cycle;Signal;HPM_P1;HPM_P2
2023/01/16 06:14:03;;;;;;;;;;;;;;;;;;;;;
2023/01/16 06:17:35;;;;;;;27.30;15.02;;;7.80;99.90;;;;;;4972182;29;20102;-93
2023/01/16 06:20:34;;;;;;;27.02;15.13;;;8.00;99.90;;;;;;4831385;29;20022;-92
2023/01/16 06:23:14;;;;;;;28.52;13.95;;;8.30;99.90;;;;;;4828409;29;20461;-93
2023/01/16 06:25:53;;;;;;;19.25;14.32;;;8.50;99.90;;;;;;4829121;29;20078;-93
2023/01/16 06:28:30;;;;;;;24.85;13.95;;;8.60;99.90;;;;;;4832854;29;20122;-92
2023/01/16 06:31:48;;;;;;;25.00;15.00;;;8.80;99.90;;;;;;4823926;29;20030;-92
2023/01/16 06:34:28;;;;;;;27.27;14.60;;;9.00;99.90;;;;;;4977562;23;20059;-93
2023/01/16 06:36:58;;;;;;;26.67;14.45;;;9.10;99.90;;;;;;4970604;28;20038;-93
2023/01/16 06:39:28;;;;;;;31.52;15.80;;;9.30;99.90;;;;;;4974361;28;20548;-92
2023/01/16 06:42:03;;;;;;;29.02;15.20;;;9.50;99.90;;;;;;4954813;28;20039;-93
2023/01/16 06:44:34;;;;;;;23.88;14.93;;;9.50;99.90;;;;;;4971433;28;20125;-92
2023/01/16 06:47:12;;;;;;;25.50;15.50;;;9.60;99.90;;;;;;4963669;28;20094;-93
2023/01/16 06:49:43;;;;;;;23.35;14.65;;;9.70;99.90;;;;;;4962221;28;20034;-93
2023/01/16 06:52:21;;;;;;;29.80;16.45;;;9.70;99.90;;;;;;5059358;23;20031;-93
2023/01/16 06:54:51;;;;;;;33.78;15.75;;;9.80;99.90;;;;;;4954673;28;20050;-93
2023/01/16 06:57:39;;;;;;;26.92;15.10;;;9.90;99.90;;;;;;4960228;28;20035;-93
2023/01/16 07:00:32;;;;;;;;;;;;;;;;;;;;;
2023/01/16 07:03:35;;;;;;;;;;;;;;;;;;;;;
2023/01/16 07:07:11;;;;;;;24.67;13.88;;;10.30;99.90;;;;;;4934696;29;20450;-93
2023/01/16 07:10:29;;;;;;;25.07;15.07;;;10.50;99.90;;;;;;4863018;29;20161;-93
2023/01/16 07:24:57;;;;;;;22.40;13.80;;;11.00;99.90;;;;;;5375715;23;20042;-93
2023/01/16 07:30:53;;;;;;;27.15;12.73;;;11.20;99.90;;;;;;5300070;23;20058;-92
2023/01/16 08:21:49;;;;;;;20.58;13.80;;;13.00;99.90;;;;;;5027998;23;20054;-94
2023/01/16 08:53:52;;;;;;;;;;;;;;;;;;;;;
2023/01/16 09:16:35;;;;;;;18.17;15.02;;;14.90;99.90;;;;;;4980529;28;20047;-94
2023/01/16 09:19:15;;;;;;;16.50;14.98;;;14.90;99.90;;;;;;4950506;28;20046;-92
2023/01/16 09:21:46;;;;;;;15.43;13.95;;;14.70;99.90;;;;;;4966874;28;20495;-93
2023/01/16 09:24:19;;;;;;;18.48;14.50;;;14.70;99.90;;;;;;4988800;23;20408;-91
2023/01/16 09:26:46;;;;;;;16.00;14.38;;;14.80;99.90;;;;;;4945081;29;20397;-93
2023/01/16 09:29:12;;;;;;;20.65;14.32;;;14.80;99.90;;;;;;4942418;29;20032;-86
2023/01/16 09:31:39;;;;;;;16.20;14.02;;;14.90;99.90;;;;;;4938900;29;20027;-85
2023/01/16 09:34:05;;;;;;;15.38;14.05;;;15.00;99.90;;;;;;4938515;29;20478;-85
2023/01/16 09:36:31;;;;;;;16.25;14.70;;;15.10;99.90;;;;;;4936592;29;20030;-85
2023/01/16 09:38:58;;;;;;;17.40;15.23;;;15.10;99.90;;;;;;4958217;29;20481;-85
2023/01/16 09:44:15;;;;;;;21.88;14.73;;;15.00;99.90;;;;;;4957611;29;20042;-83
2023/01/16 09:46:50;;;;;;;15.15;13.70;;;14.90;99.90;;;;;;4942008;29;20051;-83
2023/01/16 09:49:39;;;;;;;15.40;13.40;;;14.90;99.90;;;;;;4941763;29;20031;-87
2023/01/16 09:58:47;;;;;;;16.38;13.40;;;14.80;99.90;;;;;;4957680;29;20523;-85
2023/01/16 10:00:56;;;;;;;15.55;14.00;;;14.90;99.90;;;;;;4968449;28;20043;-86
2023/01/16 10:03:22;;;;;;;15.75;14.05;;;14.80;99.90;;;;;;4941644;29;20023;-86
2023/01/16 10:06:14;;;;;;;15.07;13.45;;;14.80;99.90;;;;;;4941332;29;20495;-84
2023/01/16 10:09:15;;;;;;;14.25;12.82;;;14.90;99.90;;;;;;4941292;29;20485;-84
2023/01/16 10:12:10;;;;;;;13.48;12.32;;;14.80;99.90;;;;;;4957044;29;20023;-88
2023/01/16 10:14:51;;;;;;;14.98;13.00;;;14.90;99.90;;;;;;4941305;29;20134;-85
2023/01/16 10:17:17;;;;;;;16.27;12.93;;;15.00;99.90;;;;;;4957114;29;20031;-83
2023/01/16 10:20:04;;;;;;;14.80;12.95;;;15.00;99.90;;;;;;4941095;29;20023;-83
2023/01/16 10:22:47;;;;;;;31.42;19.38;;;15.20;99.90;;;;;;4940983;29;20027;-83
2023/01/16 10:25:30;;;;;;;53.35;28.95;;;15.20;99.90;;;;;;4944215;29;20070;-93
2023/01/16 10:28:31;;;;;;;40.17;26.83;;;15.20;99.90;;;;;;4960167;28;20036;-77
2023/01/16 10:31:20;;;;;;;20.02;15.85;;;15.40;99.90;;;;;;4955064;28;20020;-78
2023/01/16 11:46:34;;;;;;;55.55;27.00;;;15.60;99.90;;;;;;4935265;29;20044;-94
2023/01/16 11:49:21;;;;;;;39.15;21.35;;;15.70;99.90;;;;;;4937753;29;20130;-95
2023/01/16 11:51:53;;;;;;;58.20;29.45;;;15.60;99.90;;;;;;4936305;29;20028;-93
2023/01/16 11:54:33;;;;;;;32.22;19.95;;;15.60;99.90;;;;;;4920805;29;20103;-93
2023/01/16 11:57:32;;;;;;;32.90;19.35;;;15.60;99.90;;;;;;4933507;29;20525;-93
2023/01/16 12:00:09;;;;;;;35.08;19.95;;;15.50;99.90;;;;;;4933462;29;20055;-93
2023/01/16 12:03:07;;;;;;;29.67;19.60;;;15.20;99.90;;;;;;4933230;29;20063;-90
2023/01/16 12:05:56;;;;;;;34.35;21.67;;;15.20;99.90;;;;;;4933390;29;20052;-93
2023/01/16 12:08:47;;;;;;;22.50;17.20;;;15.00;99.90;;;;;;4932973;29;20032;-92
2023/01/16 12:11:29;;;;;;;19.85;16.55;;;14.90;99.90;;;;;;4932958;29;20028;-94
2023/01/16 12:14:17;;;;;;;26.85;18.67;;;14.90;99.90;;;;;;4932988;29;20208;-93
2023/01/16 12:16:59;;;;;;;30.55;18.52;;;14.90;99.90;;;;;;4933309;29;20056;-94
2023/01/16 12:19:38;;;;;;;30.52;20.92;;;14.90;99.90;;;;;;4933755;29;20036;-91
2023/01/16 12:22:33;;;;;;;17.77;14.77;;;15.00;99.90;;;;;;4933200;29;20122;-93
2023/01/16 12:25:18;;;;;;;17.83;13.50;;;15.10;99.90;;;;;;4946748;29;20050;-94
2023/01/16 12:27:51;;;;;;;14.80;13.43;;;15.00;99.90;;;;;;4935908;29;20032;-92
2023/01/16 12:30:24;;;;;;;16.17;13.80;;;15.00;99.90;;;;;;4935583;29;20059;-94
2023/01/16 12:33:21;;;;;;;15.63;14.15;;;15.20;99.90;;;;;;4936055;29;20087;-93
2023/01/16 12:36:10;;;;;;;16.52;13.65;;;15.30;99.90;;;;;;4936764;29;20032;-92
2023/01/16 12:38:59;;;;;;;20.60;14.35;;;15.50;99.90;;;;;;4935423;29;20085;-96
2023/01/16 12:44:36;;;;;;;18.52;15.60;;;15.80;99.90;;;;;;4935145;29;20060;-92
2023/01/16 12:47:25;;;;;;;16.25;14.52;;;15.90;99.90;;;;;;4935761;29;20059;-94
2023/01/16 12:50:10;;;;;;;17.40;15.77;;;15.80;99.90;;;;;;4936424;29;20096;-93
2023/01/16 12:53:10;;;;;;;19.73;16.15;;;15.80;99.90;;;;;;4935743;29;20035;-92
2023/01/16 12:56:13;;;;;;;23.67;17.77;;;15.80;99.90;;;;;;4938609;29;20492;-96
2023/01/16 12:58:49;;;;;;;18.45;16.65;;;15.80;99.90;;;;;;4939607;29;20032;-95
2023/01/16 13:01:28;;;;;;;20.85;17.98;;;15.60;99.90;;;;;;4939666;29;20040;-95
2023/01/16 13:04:13;;;;;;;20.25;16.05;;;15.50;99.90;;;;;;4939438;29;20039;-93
2023/01/16 13:07:02;;;;;;;19.88;16.95;;;15.30;99.90;;;;;;4939460;29;20035;-93
2023/01/16 13:09:38;;;;;;;20.52;16.73;;;15.30;99.90;;;;;;4938950;29;20066;-93
2023/01/16 13:19:21;;;;;;;18.33;16.17;;;15.20;99.90;;;;;;5123053;23;20059;-94
2023/01/16 13:21:59;;;;;;;24.00;16.50;;;15.20;99.90;;;;;;4832243;29;20041;-94
2023/01/16 14:26:02;;;;;;;;;;;;;;;;;;;;;
2023/01/16 14:55:14;;;;;;;37.35;18.23;;;14.30;99.90;;;;;;4925500;29;20496;-91
2023/01/16 14:57:43;;;;;;;22.58;13.75;;;14.30;99.90;;;;;;4931144;28;20026;-92
2023/01/16 15:00:14;;;;;;;19.13;12.88;;;14.20;99.90;;;;;;4943307;28;20089;-90
2023/01/16 15:02:53;;;;;;;20.40;13.50;;;14.10;99.90;;;;;;4937019;29;20028;-90
2023/01/16 15:05:52;;;;;;;21.63;14.75;;;14.10;99.90;;;;;;4935505;28;20035;-90
2023/01/16 15:08:30;;;;;;;23.42;13.57;;;14.00;99.90;;;;;;4935884;29;20023;-91
2023/01/16 15:11:30;;;;;;;21.55;14.05;;;14.00;99.90;;;;;;4927000;29;20040;-91
2023/01/16 15:22:18;;;;;;;23.92;12.77;;;13.90;99.90;;;;;;4926377;29;20027;-91
2023/01/16 15:24:56;;;;;;;28.17;14.88;;;13.90;99.90;;;;;;4933266;28;20035;-91
2023/01/16 15:27:32;;;;;;;24.52;14.10;;;13.90;99.90;;;;;;4936595;29;20122;-91
2023/01/16 15:30:03;;;;;;;22.33;14.20;;;13.80;99.90;;;;;;4937789;29;20038;-91
2023/01/16 15:32:29;;;;;;;20.35;14.50;;;13.70;99.90;;;;;;4939957;28;20023;-92
2023/01/16 15:35:16;;;;;;;29.35;15.15;;;13.60;99.90;;;;;;4930138;29;20086;-94
2023/01/16 15:37:56;;;;;;;25.98;15.98;;;13.60;99.90;;;;;;4935914;28;20070;-92
2023/01/16 15:40:29;;;;;;;32.53;17.73;;;13.60;99.90;;;;;;4936282;29;20107;-91
2023/01/16 15:49:13;;;;;;;27.50;13.90;;;13.40;99.90;;;;;;4936355;29;20032;-94
2023/01/16 15:51:55;;;;;;;25.65;12.60;;;13.40;99.90;;;;;;4885463;29;20059;-93
2023/01/16 15:54:22;;;;;;;25.20;14.07;;;13.40;99.90;;;;;;4885541;29;20040;-93
2023/01/16 15:56:49;;;;;;;30.58;14.77;;;13.30;99.90;;;;;;4886814;29;20044;-93
2023/01/16 15:59:36;;;;;;;33.42;15.90;;;13.30;99.90;;;;;;4885608;29;20087;-92
2023/01/16 16:02:14;;;;;;;34.28;17.52;;;13.30;99.90;;;;;;4901100;29;20110;-92
2023/01/16 16:04:40;;;;;;;29.35;12.77;;;13.30;99.90;;;;;;4886075;29;20040;-92
2023/01/16 16:07:10;;;;;;;34.70;18.73;;;13.20;99.90;;;;;;4895476;29;20173;-91
2023/01/16 16:09:49;;;;;;;22.90;12.02;;;13.20;99.90;;;;;;4888656;29;20491;-90
2023/01/16 16:12:19;;;;;;;26.02;12.05;;;13.20;99.90;;;;;;4866815;29;20033;-92
2023/01/16 16:20:39;;;;;;;21.70;10.82;;;13.10;99.90;;;;;;4900186;29;20038;-91
2023/01/16 16:23:12;;;;;;;23.15;11.10;;;13.10;99.90;;;;;;4907536;29;20189;-90
2023/01/16 16:25:58;;;;;;;23.52;12.60;;;13.10;99.90;;;;;;4893637;29;20051;-90
2023/01/16 16:28:40;;;;;;;26.40;12.32;;;13.10;99.90;;;;;;4899353;29;20039;-92
2023/01/16 16:31:29;;;;;;;32.80;11.95;;;13.10;99.90;;;;;;4936598;29;20054;-90
2023/01/16 16:34:02;;;;;;;25.90;12.18;;;13.10;99.90;;;;;;4935859;29;20063;-90
2023/01/16 16:36:29;;;;;;;22.65;13.35;;;13.10;99.90;;;;;;4920487;29;20036;-91
2023/01/16 16:38:59;;;;;;;23.90;13.32;;;13.10;99.90;;;;;;4925225;29;20090;-91
2023/01/16 16:42:25;;;;;;;34.05;13.45;;;13.10;99.90;;;;;;4940622;28;20039;-92
2023/01/16 16:44:40;;;;;;;27.00;12.75;;;13.10;99.90;;;;;;4940186;28;20040;-91
2023/01/16 16:47:38;;;;;;;22.10;11.40;;;13.10;99.90;;;;;;4934057;28;20024;-93
2023/01/16 16:50:30;;;;;;;34.38;15.02;;;13.10;99.90;;;;;;4943051;28;20042;-93
2023/01/16 16:53:28;;;;;;;28.95;13.25;;;13.10;99.90;;;;;;4931758;29;20032;-94
2023/01/16 16:56:11;;;;;;;28.50;12.85;;;13.10;99.90;;;;;;4935031;29;20036;-92
2023/01/16 16:58:43;;;;;;;27.30;13.02;;;13.10;99.90;;;;;;4935936;29;20386;-93
2023/01/16 17:01:14;;;;;;;26.20;13.25;;;13.10;99.90;;;;;;4905582;29;20099;-92
2023/01/16 17:04:25;;;;;;;29.10;13.77;;;13.10;99.90;;;;;;4935855;29;20054;-92
2023/01/16 17:07:05;;;;;;;26.85;14.32;;;13.10;99.90;;;;;;4850366;29;20037;-93
2023/01/16 17:12:38;;;;;;;36.08;17.00;;;13.10;99.90;;;;;;4934398;29;20040;-94
2023/01/16 17:15:12;;;;;;;44.63;18.52;;;13.10;99.90;;;;;;4920424;29;20039;-94
2023/01/16 17:17:45;;;;;;;38.17;18.40;;;13.10;99.90;;;;;;4936701;29;20036;-93
2023/01/16 17:20:20;;;;;;;44.35;20.13;;;13.00;99.90;;;;;;4936429;29;20039;-94
2023/01/16 17:22:56;;;;;;;43.00;18.95;;;13.00;99.90;;;;;;4936029;29;20058;-93
2023/01/16 17:25:57;;;;;;;51.40;21.40;;;13.00;99.90;;;;;;4936857;29;20083;-94
2023/01/16 17:28:33;;;;;;;41.10;18.73;;;13.00;99.90;;;;;;4928003;23;20484;-92
2023/01/16 17:36:22;;;;;;;43.72;22.38;;;13.00;99.90;;;;;;5337617;23;20480;-92
2023/01/16 17:38:55;;;;;;;33.95;19.05;;;12.90;99.90;;;;;;4958304;28;20488;-93
2023/01/16 17:46:44;;;;;;;38.10;19.70;;;12.90;99.90;;;;;;4977380;28;20499;-92
2023/01/16 17:49:12;;;;;;;41.97;24.08;;;12.90;99.90;;;;;;4961184;28;20519;-92
2023/01/16 17:51:38;;;;;;;44.38;23.27;;;12.80;99.90;;;;;;4961030;28;20031;-93
2023/01/16 17:54:05;;;;;;;41.53;22.15;;;12.80;99.90;;;;;;4961778;28;20031;-91
2023/01/16 17:56:32;;;;;;;52.80;25.05;;;12.80;99.90;;;;;;4962176;28;20031;-92
2023/01/16 17:59:08;;;;;;;52.17;23.13;;;12.70;99.90;;;;;;4965368;28;20019;-91
2023/01/16 18:01:36;;;;;;;41.25;20.30;;;12.70;99.90;;;;;;4963752;28;20093;-92
2023/01/16 18:04:07;;;;;;;35.30;17.13;;;12.70;99.90;;;;;;4962187;28;20027;-91
2023/01/16 18:06:35;;;;;;;29.45;18.95;;;12.70;99.90;;;;;;4952136;28;20026;-90
2023/01/16 18:09:06;;;;;;;36.35;21.95;;;12.70;99.90;;;;;;4968293;28;20027;-92
2023/01/16 18:17:23;;;;;;;41.85;20.52;;;12.80;99.90;;;;;;4987040;28;20042;-92
2023/01/16 18:19:52;;;;;;;40.90;19.65;;;12.80;99.90;;;;;;4966708;28;20059;-92
2023/01/16 18:22:19;;;;;;;35.67;17.08;;;12.80;99.90;;;;;;4967376;28;20023;-91
2023/01/16 18:24:46;;;;;;;49.33;18.30;;;12.80;99.90;;;;;;4971359;28;20035;-93
2023/01/16 18:27:21;;;;;;;38.85;18.67;;;12.80;99.90;;;;;;4968697;28;20105;-91
2023/01/16 18:30:19;;;;;;;43.30;19.88;;;12.80;99.90;;;;;;4968836;29;20171;-92
2023/01/16 18:32:46;;;;;;;52.80;20.10;;;12.80;99.90;;;;;;5116404;23;20377;-95
2023/01/16 18:35:13;;;;;;;55.08;22.48;;;12.80;99.90;;;;;;4986770;28;20511;-93
2023/01/16 19:01:54;;;;;;;50.35;25.90;;;12.80;99.90;;;;;;4978863;28;20051;-93
2023/01/16 19:03:00;;;;;;;39.67;16.17;;;13.00;99.90;;;;;;4955561;29;20032;-92
2023/01/16 19:05:28;;;;;;;43.00;19.65;;;13.00;99.90;;;;;;4953170;29;20034;-93
2023/01/16 19:07:56;;;;;;;27.38;15.45;;;13.00;99.90;;;;;;4942059;29;20035;-91
2023/01/16 19:10:48;;;;;;;49.08;20.13;;;13.10;99.90;;;;;;4943673;29;20030;-91
2023/01/16 19:13:36;;;;;;;36.60;16.15;;;13.10;99.90;;;;;;4973204;28;20035;-93
2023/01/16 19:18:51;;;;;;;41.75;17.42;;;13.20;99.90;;;;;;4946263;29;20115;-91
2023/01/16 19:21:17;;;;;;;32.45;15.00;;;13.30;99.90;;;;;;4960211;28;20042;-90
2023/01/16 19:23:44;;;;;;;34.67;15.80;;;13.30;99.90;;;;;;4940889;28;20032;-90
2023/01/16 19:26:10;;;;;;;32.30;13.23;;;13.30;99.90;;;;;;4968666;28;20031;-91
2023/01/16 19:28:37;;;;;;;32.97;13.93;;;13.30;99.90;;;;;;4943264;28;20071;-90
2023/01/16 19:31:05;;;;;;;31.85;13.90;;;13.30;99.90;;;;;;4959859;28;20034;-93
2023/01/16 19:33:31;;;;;;;29.85;13.38;;;13.30;99.90;;;;;;4959494;28;20053;-92
2023/01/16 19:35:58;;;;;;;32.40;13.77;;;13.30;99.90;;;;;;4959177;28;20023;-91
2023/01/16 19:38:25;;;;;;;30.00;14.15;;;13.30;99.90;;;;;;4958880;28;20118;-90
2023/01/16 19:40:52;;;;;;;35.55;13.90;;;13.40;99.90;;;;;;4958810;28;20392;-91
2023/01/16 19:48:49;;;;;;;32.70;15.40;;;13.30;99.90;;;;;;4991189;28;20030;-91
2023/01/16 19:51:45;;;;;;;37.72;15.48;;;13.30;99.90;;;;;;4958935;28;20029;-91
2023/01/16 19:54:12;;;;;;;32.20;13.40;;;13.40;99.90;;;;;;4958815;28;20045;-89
2023/01/16 19:56:40;;;;;;;33.20;14.35;;;13.40;99.90;;;;;;4958730;28;20030;-91
2023/01/16 19:59:08;;;;;;;28.45;13.07;;;13.40;99.90;;;;;;4958700;28;20046;-92
2023/01/16 20:01:54;;;;;;;25.27;11.75;;;13.30;99.90;;;;;;4958579;28;20424;-92
2023/01/16 20:04:23;;;;;;;33.97;14.00;;;13.30;99.90;;;;;;4974573;28;20031;-93
2023/01/16 20:06:50;;;;;;;24.48;12.57;;;13.40;99.90;;;;;;4959087;28;20472;-92
2023/01/16 20:09:18;;;;;;;28.77;12.65;;;13.30;99.90;;;;;;4958900;28;20034;-91
2023/01/16 20:14:32;;;;;;;23.73;11.63;;;13.40;99.90;;;;;;4975749;28;20027;-91
2023/01/16 20:16:59;;;;;;;22.70;11.48;;;13.50;99.90;;;;;;4958674;28;20045;-94
2023/01/16 20:19:26;;;;;;;28.75;14.45;;;13.50;99.90;;;;;;4958618;28;20058;-91
2023/01/16 20:21:54;;;;;;;25.35;14.77;;;13.40;99.90;;;;;;4958335;28;20062;-93
2023/01/16 20:24:21;;;;;;;38.63;17.33;;;13.50;99.90;;;;;;4958643;28;20031;-90
2023/01/16 20:26:50;;;;;;;38.92;20.48;;;13.40;99.90;;;;;;4960061;28;20038;-91
2023/01/16 20:29:22;;;;;;;29.73;15.20;;;13.50;99.90;;;;;;4964175;28;20392;-92
2023/01/16 20:31:50;;;;;;;35.35;14.98;;;13.50;99.90;;;;;;4965709;28;20038;-93
2023/01/16 20:34:17;;;;;;;28.38;14.27;;;13.50;99.90;;;;;;4961289;28;20061;-91
2023/01/16 20:36:48;;;;;;;24.13;16.13;;;13.50;99.90;;;;;;4946234;29;20027;-93
2023/01/16 20:39:17;;;;;;;29.98;14.77;;;13.50;99.90;;;;;;4954953;28;20378;-93
2023/01/16 20:47:16;;;;;;;23.70;13.32;;;13.40;99.90;;;;;;4955198;29;20515;-93
2023/01/16 20:49:43;;;;;;;19.63;13.05;;;13.40;99.90;;;;;;4955844;28;20027;-91
2023/01/16 20:52:14;;;;;;;19.05;12.25;;;13.40;99.90;;;;;;4955517;29;20027;-94
2023/01/16 20:54:45;;;;;;;23.83;12.13;;;13.40;99.90;;;;;;4939793;29;20134;-94
2023/01/16 20:57:18;;;;;;;28.05;11.95;;;13.40;99.90;;;;;;4919075;29;20229;-91
2023/01/16 21:00:12;;;;;;;25.08;13.88;;;13.40;99.90;;;;;;4902214;29;20041;-94
2023/01/16 21:02:42;;;;;;;24.63;13.43;;;13.40;99.90;;;;;;4890272;29;20032;-93
2023/01/16 21:08:55;;;;;;;22.42;11.80;;;13.40;99.90;;;;;;4881998;29;20041;-93
2023/01/16 21:24:01;;;;;;;22.92;10.38;;;13.50;99.90;;;;;;4969771;23;20047;-93
2023/01/16 21:26:35;;;;;;;31.48;10.90;;;13.50;99.90;;;;;;4944244;29;20480;-94
2023/01/16 21:29:11;;;;;;;20.90;9.77;;;13.50;99.90;;;;;;4944116;29;20501;-92
2023/01/16 21:34:48;;;;;;;22.90;9.23;;;13.60;99.90;;;;;;5399685;23;20993;-94
2023/01/16 23:45:11;;;;;;;23.15;11.30;;;12.30;99.90;;;;;;4939071;29;20047;-93
